Time;durP1;ratioP1;P1;durP2;ratioP2;P2;SDS_P1;SDS_P2;PMS_P1;PMS_P2;Temp;Humidity;BMP_temperature;BMP_pressure;BME280_temperature;BME280_humidity;BME280_pressure;Samples;Min_cycle;Max_cycle;Signal;HPM_P1;HPM_P2
2023/03/02 00:01:47;;;;;;;2.90;1.55;;;17.60;31.60;;;;;;5051953;28;20280;-60
2023/03/02 00:04:17;;;;;;;2.72;1.55;;;17.60;31.60;;;;;;5059210;28;20260;-65
2023/03/02 00:06:44;;;;;;;4.47;1.73;;;17.60;31.60;;;;;;5052624;28;20276;-61
2023/03/02 00:09:11;;;;;;;2.00;1.50;;;17.70;31.70;;;;;;5058229;28;20268;-66
2023/03/02 00:11:39;;;;;;;3.00;1.92;;;17.60;31.60;;;;;;5062124;28;20228;-67
2023/03/02 00:14:07;;;;;;;2.40;1.50;;;17.70;31.80;;;;;;5057514;28;20190;-61
2023/03/02 00:16:34;;;;;;;3.63;1.45;;;17.60;31.70;;;;;;5054092;28;20232;-65
2023/03/02 00:19:01;;;;;;;2.20;1.23;;;17.60;31.60;;;;;;5056437;28;20252;-65
2023/03/02 00:21:30;;;;;;;4.68;1.33;;;17.60;31.70;;;;;;5063370;28;20244;-66
2023/03/02 00:23:57;;;;;;;3.00;1.48;;;17.60;31.70;;;;;;5055463;28;20696;-66
2023/03/02 00:26:24;;;;;;;3.55;1.45;;;17.50;31.60;;;;;;5055978;28;20246;-64
2023/03/02 00:28:51;;;;;;;3.63;1.55;;;17.60;31.70;;;;;;5054355;28;20230;-64
2023/03/02 00:31:20;;;;;;;2.05;1.25;;;17.60;31.70;;;;;;5065725;28;20273;-58
2023/03/02 00:33:47;;;;;;;2.70;1.60;;;17.60;31.80;;;;;;5062023;28;20670;-60
2023/03/02 00:36:19;;;;;;;3.03;1.52;;;17.50;31.60;;;;;;5058286;28;20223;-64
2023/03/02 00:38:47;;;;;;;2.58;1.40;;;17.50;31.70;;;;;;5052501;28;20192;-60
2023/03/02 00:41:15;;;;;;;1.98;1.20;;;17.50;31.70;;;;;;5069073;28;20276;-60
2023/03/02 00:43:43;;;;;;;5.97;1.75;;;17.50;31.70;;;;;;5056080;28;20200;-60
2023/03/02 00:46:11;;;;;;;3.33;1.65;;;17.50;31.70;;;;;;5063008;28;20570;-61
2023/03/02 00:48:40;;;;;;;2.05;1.33;;;17.50;31.70;;;;;;5055880;28;20257;-66
2023/03/02 00:51:08;;;;;;;2.42;1.50;;;17.50;31.80;;;;;;5055549;28;20226;-60
2023/03/02 00:53:36;;;;;;;4.07;1.35;;;17.50;31.80;;;;;;5055693;28;20199;-67
2023/03/02 00:56:04;;;;;;;3.38;1.40;;;17.50;31.80;;;;;;5063951;28;20223;-65
2023/03/02 00:58:32;;;;;;;3.20;1.27;;;17.50;31.80;;;;;;5055647;28;20204;-66
2023/03/02 01:01:04;;;;;;;3.72;1.10;;;17.50;31.80;;;;;;5071319;28;20234;-64
2023/03/02 01:03:31;;;;;;;2.03;1.33;;;17.50;31.80;;;;;;5055294;28;20666;-61
2023/03/02 01:05:59;;;;;;;2.65;1.10;;;17.50;31.80;;;;;;5063726;28;20253;-59
2023/03/02 01:08:26;;;;;;;3.10;1.25;;;17.50;31.80;;;;;;5055192;28;20225;-62
2023/03/02 01:10:53;;;;;;;2.72;1.58;;;17.50;31.80;;;;;;5071210;28;20252;-63
2023/03/02 01:13:20;;;;;;;2.30;1.33;;;17.40;31.70;;;;;;5057900;28;20187;-66
2023/03/02 01:15:47;;;;;;;3.47;1.40;;;17.50;31.80;;;;;;5066284;28;20727;-65
2023/03/02 01:18:15;;;;;;;2.97;1.17;;;17.40;31.80;;;;;;5064727;28;20199;-65
2023/03/02 01:20:41;;;;;;;1.67;1.15;;;17.40;31.80;;;;;;5058513;28;20243;-61
2023/03/02 01:23:10;;;;;;;3.58;1.30;;;17.40;31.80;;;;;;5060436;28;20254;-60
2023/03/02 01:25:37;;;;;;;3.85;1.48;;;17.40;31.80;;;;;;5055216;28;20864;-59
2023/03/02 01:28:05;;;;;;;3.08;1.50;;;17.40;31.80;;;;;;5066724;28;20302;-63
2023/03/02 01:30:32;;;;;;;1.88;1.27;;;17.40;31.80;;;;;;5060354;28;20199;-65
2023/03/02 01:32:59;;;;;;;3.20;1.35;;;17.40;31.80;;;;;;5065569;28;20272;-66
2023/03/02 01:35:26;;;;;;;2.97;1.35;;;17.40;31.80;;;;;;5054190;28;20241;-65
2023/03/02 01:37:53;;;;;;;4.88;1.63;;;17.40;31.80;;;;;;5054980;28;20692;-61
2023/03/02 01:40:21;;;;;;;2.38;1.30;;;17.40;31.80;;;;;;5062648;28;20245;-61
2023/03/02 01:42:55;;;;;;;2.50;1.38;;;17.30;31.70;;;;;;5054667;28;20285;-61
2023/03/02 01:45:46;;;;;;;3.80;1.50;;;17.40;31.80;;;;;;5059822;28;20192;-63
2023/03/02 01:48:16;;;;;;;2.97;1.30;;;17.40;31.80;;;;;;5057176;28;20195;-60
2023/03/02 01:50:46;;;;;;;3.38;1.48;;;17.40;31.80;;;;;;5059475;28;20207;-61
2023/03/02 01:53:15;;;;;;;2.63;1.45;;;17.30;31.70;;;;;;5054512;28;20211;-61
2023/03/02 01:55:45;;;;;;;5.43;2.25;;;17.40;31.80;;;;;;5054326;28;20221;-62
2023/03/02 01:58:15;;;;;;;2.17;1.48;;;17.30;31.80;;;;;;5056402;28;20239;-61
2023/03/02 02:00:42;;;;;;;2.33;1.60;;;17.30;31.80;;;;;;5060340;28;20215;-61
2023/03/02 02:03:14;;;;;;;2.75;1.65;;;17.30;31.80;;;;;;5053920;28;20254;-59
2023/03/02 02:05:43;;;;;;;3.28;1.50;;;17.30;31.80;;;;;;5054153;28;20191;-62
2023/03/02 02:08:11;;;;;;;3.65;2.00;;;17.30;31.80;;;;;;5055151;28;20273;-63
2023/03/02 02:10:39;;;;;;;5.72;1.83;;;17.30;31.80;;;;;;5061055;28;20192;-58
2023/03/02 02:13:10;;;;;;;3.42;1.70;;;17.30;31.80;;;;;;5053820;28;20246;-61
2023/03/02 02:15:38;;;;;;;2.67;1.77;;;17.30;31.80;;;;;;5054115;28;20188;-59
2023/03/02 02:18:05;;;;;;;2.83;1.77;;;17.30;31.90;;;;;;5053920;28;20269;-59
2023/03/02 02:20:37;;;;;;;5.75;2.08;;;17.30;31.90;;;;;;5053660;28;20231;-61
2023/03/02 02:23:18;;;;;;;5.57;2.15;;;17.30;31.90;;;;;;5053980;28;20223;-64
2023/03/02 02:26:02;;;;;;;3.55;2.13;;;17.30;31.90;;;;;;5053960;28;20195;-65
2023/03/02 02:28:34;;;;;;;4.30;2.10;;;17.30;31.90;;;;;;5056396;28;20195;-64
2023/03/02 02:31:07;;;;;;;4.00;2.20;;;17.30;31.90;;;;;;5058732;28;20606;-65
2023/03/02 02:33:37;;;;;;;4.65;2.00;;;17.30;31.90;;;;;;5067498;28;20207;-62
2023/03/02 02:36:08;;;;;;;4.63;2.42;;;17.20;32.50;;;;;;5053820;28;20196;-65
2023/03/02 02:38:37;;;;;;;4.43;2.03;;;17.30;32.00;;;;;;5056183;28;20697;-66
2023/03/02 02:41:09;;;;;;;3.58;2.22;;;17.20;31.80;;;;;;5058207;28;20628;-60
2023/03/02 02:43:36;;;;;;;4.03;2.40;;;17.20;31.90;;;;;;5053577;28;20204;-60
2023/03/02 02:46:03;;;;;;;4.68;2.40;;;17.20;31.90;;;;;;5053325;28;20196;-66
2023/03/02 02:48:32;;;;;;;2.92;2.30;;;17.20;31.90;;;;;;5054723;28;20253;-59
2023/03/02 02:51:01;;;;;;;4.88;2.60;;;17.20;31.90;;;;;;5059609;28;20199;-58
2023/03/02 02:53:33;;;;;;;4.20;2.50;;;17.20;31.90;;;;;;5053489;28;20226;-62
2023/03/02 02:56:03;;;;;;;4.15;2.60;;;17.20;31.90;;;;;;5053159;28;20652;-64
2023/03/02 02:58:37;;;;;;;3.63;2.47;;;17.20;31.90;;;;;;5054274;28;20196;-62
2023/03/02 03:01:05;;;;;;;3.95;2.55;;;17.10;31.90;;;;;;5059034;28;20211;-65
2023/03/02 03:03:34;;;;;;;4.05;2.70;;;17.20;31.90;;;;;;5051948;28;20196;-64
2023/03/02 03:06:04;;;;;;;4.10;2.67;;;17.10;31.90;;;;;;5053288;28;20192;-63
2023/03/02 03:09:02;;;;;;;4.40;2.92;;;17.10;31.90;;;;;;5053762;28;20241;-60
2023/03/02 03:11:31;;;;;;;4.15;2.92;;;17.20;32.00;;;;;;4975154;28;20234;-65
2023/03/02 03:14:04;;;;;;;5.25;2.92;;;17.10;31.90;;;;;;4972271;28;20199;-61
2023/03/02 03:16:33;;;;;;;6.40;2.72;;;17.10;32.00;;;;;;4971799;28;20226;-66
2023/03/02 03:19:06;;;;;;;5.25;3.20;;;17.10;31.90;;;;;;4975574;28;20198;-66
2023/03/02 03:21:33;;;;;;;4.85;3.25;;;17.10;32.00;;;;;;4974574;28;20246;-60
2023/03/02 03:24:00;;;;;;;4.60;3.40;;;17.10;32.00;;;;;;4971949;28;20261;-63
2023/03/02 03:26:28;;;;;;;5.28;3.30;;;17.10;32.00;;;;;;4971561;28;20574;-61
2023/03/02 03:28:56;;;;;;;4.65;3.40;;;17.10;32.00;;;;;;4974051;28;20206;-60
2023/03/02 03:31:26;;;;;;;3.78;3.15;;;17.10;32.00;;;;;;4976555;28;20586;-60
2023/03/02 03:33:54;;;;;;;6.75;4.10;;;17.10;32.00;;;;;;4972165;28;20673;-61
2023/03/02 03:36:22;;;;;;;7.80;4.00;;;17.10;32.00;;;;;;4971388;28;20222;-63
2023/03/02 03:38:49;;;;;;;5.60;3.30;;;17.10;32.00;;;;;;4972526;28;20206;-62
2023/03/02 03:41:16;;;;;;;5.10;3.45;;;17.10;32.00;;;;;;4977804;28;20274;-61
2023/03/02 03:43:43;;;;;;;4.82;3.10;;;17.00;31.90;;;;;;4971310;28;20643;-60
2023/03/02 03:46:10;;;;;;;5.32;3.50;;;17.10;32.00;;;;;;5029736;28;20664;-60
2023/03/02 03:48:39;;;;;;;5.95;3.00;;;17.10;32.00;;;;;;5052443;28;20196;-61
2023/03/02 03:51:06;;;;;;;6.25;3.70;;;17.00;32.00;;;;;;5060595;28;20282;-60
2023/03/02 03:53:34;;;;;;;5.32;3.88;;;17.00;32.00;;;;;;5052418;28;20339;-64
2023/03/02 03:56:02;;;;;;;4.50;3.60;;;17.00;32.00;;;;;;5052067;28;20672;-66
2023/03/02 03:58:30;;;;;;;5.15;3.75;;;17.00;32.00;;;;;;5052356;28;20203;-59
2023/03/02 04:00:57;;;;;;;6.88;3.83;;;17.00;32.00;;;;;;5060498;28;20200;-60
2023/03/02 04:03:25;;;;;;;5.72;3.88;;;17.00;32.00;;;;;;5052028;28;20215;-64
2023/03/02 04:05:54;;;;;;;4.70;3.78;;;17.00;32.00;;;;;;5052224;28;20203;-64
2023/03/02 04:08:21;;;;;;;4.57;3.58;;;17.00;32.60;;;;;;5052365;28;20300;-61
2023/03/02 04:10:48;;;;;;;5.65;4.25;;;17.00;32.00;;;;;;5060440;28;20649;-65
2023/03/02 04:13:15;;;;;;;6.07;3.80;;;17.00;32.00;;;;;;5052236;28;20227;-62
2023/03/02 04:15:42;;;;;;;6.70;4.13;;;17.00;32.00;;;;;;5052016;28;20253;-62
2023/03/02 04:18:09;;;;;;;4.80;3.85;;;17.00;32.00;;;;;;5052059;28;20223;-60
2023/03/02 04:20:36;;;;;;;5.18;3.55;;;17.00;32.00;;;;;;5059978;28;20246;-61
2023/03/02 04:23:05;;;;;;;5.25;3.55;;;17.00;32.00;;;;;;5051687;28;20356;-61
2023/03/02 04:25:32;;;;;;;4.55;3.38;;;17.00;32.00;;;;;;5052156;28;20265;-64
2023/03/02 04:27:59;;;;;;;5.50;3.58;;;17.00;32.00;;;;;;5052065;28;20216;-60
2023/03/02 04:30:27;;;;;;;5.68;3.25;;;17.00;32.10;;;;;;5060309;28;20249;-60
2023/03/02 04:32:57;;;;;;;4.78;3.33;;;17.00;32.10;;;;;;5055942;28;20269;-62
2023/03/02 04:35:25;;;;;;;6.68;3.65;;;17.00;32.10;;;;;;5052031;28;20199;-61
2023/03/02 04:37:52;;;;;;;5.35;3.65;;;16.90;32.00;;;;;;5052170;28;20223;-62
2023/03/02 04:40:21;;;;;;;5.65;3.25;;;16.90;32.10;;;;;;5060076;28;20217;-62
2023/03/02 04:42:48;;;;;;;4.82;3.17;;;17.00;32.20;;;;;;5051858;28;20223;-63
2023/03/02 04:45:15;;;;;;;6.22;3.75;;;16.90;32.10;;;;;;5051892;28;20204;-62
2023/03/02 04:47:42;;;;;;;5.78;3.80;;;16.90;32.10;;;;;;5051803;28;20227;-61
2023/03/02 04:50:12;;;;;;;5.07;3.72;;;16.90;32.20;;;;;;5059648;28;20660;-65
2023/03/02 04:52:39;;;;;;;7.15;3.58;;;16.90;32.20;;;;;;5051552;28;20632;-63
2023/03/02 04:55:07;;;;;;;6.03;3.83;;;16.90;32.20;;;;;;5051445;28;20199;-64
2023/03/02 04:57:36;;;;;;;7.60;3.80;;;16.90;32.20;;;;;;5051699;28;20220;-61
2023/03/02 05:00:05;;;;;;;6.45;3.65;;;16.90;32.20;;;;;;5058514;28;20205;-61
2023/03/02 05:02:33;;;;;;;4.50;3.70;;;16.90;32.20;;;;;;5051934;28;20240;-64
2023/03/02 05:05:00;;;;;;;4.28;3.60;;;16.90;32.20;;;;;;5051597;28;20249;-66
2023/03/02 05:07:27;;;;;;;8.93;3.85;;;16.90;32.20;;;;;;5051631;28;20223;-63
2023/03/02 05:09:54;;;;;;;5.10;3.70;;;16.90;32.20;;;;;;5056873;28;20256;-65
2023/03/02 05:12:21;;;;;;;4.80;3.70;;;16.90;32.20;;;;;;5054276;28;20289;-60
2023/03/02 05:14:50;;;;;;;7.30;4.18;;;16.90;32.20;;;;;;5051489;28;20200;-62
2023/03/02 05:17:17;;;;;;;5.90;3.55;;;16.90;32.20;;;;;;5051274;28;20705;-60
2023/03/02 05:19:44;;;;;;;6.20;3.70;;;16.90;32.30;;;;;;5054324;28;20218;-62
2023/03/02 05:22:11;;;;;;;7.88;3.58;;;16.90;32.30;;;;;;5055850;28;20635;-62
2023/03/02 05:24:38;;;;;;;6.68;4.00;;;16.90;32.30;;;;;;5051066;28;20665;-63
2023/03/02 05:27:05;;;;;;;7.13;4.30;;;16.90;32.30;;;;;;5053224;28;20219;-62
2023/03/02 05:29:32;;;;;;;5.28;3.85;;;16.90;32.30;;;;;;5056237;28;20203;-61
2023/03/02 05:32:00;;;;;;;5.80;3.92;;;16.90;32.40;;;;;;5065666;28;20220;-63
2023/03/02 05:34:27;;;;;;;6.63;3.75;;;16.90;32.40;;;;;;5057876;28;20245;-62
2023/03/02 05:36:55;;;;;;;5.40;3.90;;;16.90;32.40;;;;;;5054872;28;20284;-63
2023/03/02 05:39:23;;;;;;;5.88;3.30;;;16.80;32.30;;;;;;5054895;28;20199;-63
2023/03/02 05:41:50;;;;;;;5.22;3.75;;;16.90;32.40;;;;;;5063088;28;20223;-61
2023/03/02 05:44:17;;;;;;;5.70;4.25;;;16.90;32.40;;;;;;5054826;28;20249;-60
2023/03/02 05:46:44;;;;;;;6.75;4.00;;;16.90;32.50;;;;;;5054199;28;20639;-61
2023/03/02 05:49:12;;;;;;;4.75;3.90;;;16.90;32.50;;;;;;5054648;28;20252;-61
2023/03/02 05:51:39;;;;;;;6.25;4.10;;;16.90;32.50;;;;;;5062677;28;20261;-65
2023/03/02 05:54:06;;;;;;;7.28;4.00;;;17.00;32.50;;;;;;5054689;28;20200;-61
2023/03/02 05:56:33;;;;;;;6.03;3.80;;;17.00;32.40;;;;;;5070942;28;20194;-62
2023/03/02 05:59:00;;;;;;;7.85;4.07;;;17.10;32.50;;;;;;5070657;28;20199;-61
2023/03/02 06:01:27;;;;;;;4.05;3.17;;;17.10;32.40;;;;;;5062654;28;20199;-65
2023/03/02 06:03:55;;;;;;;6.35;3.63;;;17.10;32.40;;;;;;5054303;28;20272;-62
2023/03/02 06:06:23;;;;;;;5.05;3.60;;;17.20;32.40;;;;;;5068357;28;20669;-65
2023/03/02 06:08:51;;;;;;;5.03;3.25;;;17.20;32.40;;;;;;5055806;28;20211;-65
2023/03/02 06:11:18;;;;;;;7.57;3.92;;;17.30;32.40;;;;;;5062245;28;20249;-65
2023/03/02 06:13:45;;;;;;;6.95;3.55;;;17.30;32.30;;;;;;5054008;28;20249;-62
2023/03/02 06:16:12;;;;;;;4.15;2.85;;;17.40;32.40;;;;;;5066603;28;20199;-66
2023/03/02 06:18:39;;;;;;;4.30;2.83;;;17.50;32.40;;;;;;5057923;28;20223;-64
2023/03/02 06:21:07;;;;;;;4.03;3.10;;;17.50;32.40;;;;;;5061673;28;20277;-65
2023/03/02 06:23:36;;;;;;;4.75;3.05;;;17.50;32.30;;;;;;5053839;28;20712;-61
2023/03/02 06:26:10;;;;;;;6.03;3.60;;;17.60;32.40;;;;;;5064709;28;20198;-63
2023/03/02 06:28:37;;;;;;;4.72;2.83;;;17.60;32.30;;;;;;5058659;28;20224;-62
2023/03/02 06:31:05;;;;;;;5.45;3.10;;;17.70;32.40;;;;;;5061926;28;20343;-65
2023/03/02 06:33:32;;;;;;;4.75;3.08;;;17.70;32.30;;;;;;5064208;28;20223;-62
2023/03/02 06:35:59;;;;;;;3.80;3.00;;;17.80;32.30;;;;;;5063193;28;20198;-61
2023/03/02 06:38:26;;;;;;;5.95;3.15;;;17.80;32.30;;;;;;5060498;28;20273;-60
2023/03/02 06:40:54;;;;;;;3.60;2.92;;;17.80;32.20;;;;;;5061501;28;20195;-61
2023/03/02 06:43:21;;;;;;;4.38;3.05;;;17.80;32.20;;;;;;5053783;28;20650;-61
2023/03/02 06:45:49;;;;;;;4.07;3.20;;;17.90;32.30;;;;;;5061043;28;20251;-62
2023/03/02 06:48:17;;;;;;;6.55;3.03;;;17.90;32.30;;;;;;5061861;28;20228;-61
2023/03/02 06:50:44;;;;;;;7.15;2.95;;;18.00;32.30;;;;;;5059725;28;20198;-63
2023/03/02 06:53:11;;;;;;;4.70;3.53;;;18.00;32.30;;;;;;5054797;28;20285;-61
2023/03/02 06:55:38;;;;;;;4.93;3.30;;;18.00;32.30;;;;;;5058840;28;20195;-63
2023/03/02 06:58:06;;;;;;;4.07;3.20;;;18.00;32.30;;;;;;5064180;28;20223;-65
2023/03/02 07:00:33;;;;;;;4.15;3.45;;;18.10;32.40;;;;;;5057655;28;20191;-63
2023/03/02 07:03:00;;;;;;;6.18;3.83;;;18.10;32.40;;;;;;5056345;28;20655;-60
2023/03/02 07:05:30;;;;;;;4.45;3.05;;;18.10;32.30;;;;;;5056671;28;20241;-63
2023/03/02 07:07:58;;;;;;;5.50;3.20;;;18.10;32.30;;;;;;5065143;28;20708;-63
2023/03/02 07:10:25;;;;;;;5.88;3.83;;;18.20;32.40;;;;;;5055707;28;20248;-62
2023/03/02 07:12:53;;;;;;;5.55;3.67;;;18.10;32.30;;;;;;5058188;28;20277;-63
2023/03/02 07:15:21;;;;;;;5.95;3.80;;;18.20;32.30;;;;;;5054721;28;20282;-60
2023/03/02 07:17:48;;;;;;;7.25;3.95;;;18.20;32.30;;;;;;5067116;28;20223;-63
2023/03/02 07:20:16;;;;;;;4.20;3.17;;;18.20;32.30;;;;;;5053638;28;20297;-64
2023/03/02 07:22:44;;;;;;;6.05;3.60;;;18.30;32.40;;;;;;5059423;28;20759;-64
2023/03/02 07:25:12;;;;;;;7.60;3.88;;;18.30;32.30;;;;;;5052349;28;20207;-65
2023/03/02 07:27:39;;;;;;;5.07;3.60;;;18.30;32.30;;;;;;5068499;28;20223;-62
2023/03/02 07:30:08;;;;;;;6.72;3.80;;;18.30;32.40;;;;;;5052446;28;20191;-63
2023/03/02 07:32:36;;;;;;;5.65;3.65;;;18.30;32.30;;;;;;5069569;28;20272;-65
2023/03/02 07:35:04;;;;;;;6.18;3.38;;;18.40;32.40;;;;;;5056355;28;20195;-62
2023/03/02 07:37:31;;;;;;;6.35;4.05;;;18.40;32.40;;;;;;5068336;28;20276;-63
2023/03/02 07:39:58;;;;;;;6.32;3.65;;;18.40;32.40;;;;;;5062118;28;20712;-66
2023/03/02 07:42:26;;;;;;;4.93;3.70;;;18.40;32.30;;;;;;5061477;28;20230;-61
2023/03/02 07:44:54;;;;;;;6.35;3.60;;;18.50;32.40;;;;;;5061452;28;20199;-60
2023/03/02 07:47:21;;;;;;;5.63;3.40;;;18.40;32.40;;;;;;5068879;28;20302;-56
2023/03/02 07:49:50;;;;;;;6.60;3.70;;;18.40;32.40;;;;;;5060264;28;20227;-59
2023/03/02 07:52:18;;;;;;;7.35;3.35;;;18.40;32.30;;;;;;5060855;28;20241;-60
2023/03/02 07:54:45;;;;;;;10.45;3.97;;;18.50;32.40;;;;;;5066808;28;20195;-58
2023/03/02 07:57:15;;;;;;;4.95;3.20;;;18.50;32.40;;;;;;5070865;28;20219;-60
2023/03/02 07:59:42;;;;;;;7.55;3.97;;;18.50;32.40;;;;;;5061234;28;20221;-61
2023/03/02 08:02:12;;;;;;;6.80;3.47;;;18.60;33.20;;;;;;5066979;28;20226;-58
2023/03/02 08:04:39;;;;;;;7.68;3.50;;;18.60;32.80;;;;;;5061510;28;20642;-60
2023/03/02 08:07:07;;;;;;;4.60;3.38;;;18.60;32.90;;;;;;5065561;28;20221;-60
2023/03/02 08:09:35;;;;;;;4.20;3.55;;;18.60;33.10;;;;;;5068262;28;20194;-61
2023/03/02 08:12:03;;;;;;;5.57;3.47;;;18.70;33.10;;;;;;5061937;28;20249;-58
2023/03/02 08:14:30;;;;;;;6.80;3.88;;;18.70;33.30;;;;;;5062447;28;20294;-61
2023/03/02 08:16:58;;;;;;;5.03;3.65;;;18.80;33.30;;;;;;5063449;28;20195;-59
2023/03/02 08:19:25;;;;;;;6.25;3.47;;;18.80;33.30;;;;;;5066512;28;20199;-63
2023/03/02 08:21:52;;;;;;;3.67;3.13;;;18.90;33.40;;;;;;5060077;28;20194;-62
2023/03/02 08:24:21;;;;;;;5.45;3.22;;;18.90;33.60;;;;;;5069603;28;20634;-63
2023/03/02 08:26:48;;;;;;;6.53;3.10;;;19.00;33.50;;;;;;5070829;28;20668;-63
2023/03/02 08:29:15;;;;;;;4.60;2.92;;;19.00;33.40;;;;;;5070685;28;20198;-64
2023/03/02 08:31:42;;;;;;;4.43;3.30;;;19.10;33.30;;;;;;5070903;28;20240;-63
2023/03/02 08:34:10;;;;;;;7.00;2.83;;;19.20;33.30;;;;;;5070668;28;20187;-64
2023/03/02 08:36:37;;;;;;;5.75;3.30;;;19.20;33.30;;;;;;5070842;28;20191;-62
2023/03/02 08:39:04;;;;;;;4.85;3.65;;;19.30;33.30;;;;;;5070765;28;20695;-64
2023/03/02 08:41:33;;;;;;;8.02;3.28;;;19.30;33.10;;;;;;5070939;28;20250;-61
2023/03/02 08:44:00;;;;;;;4.82;3.30;;;19.40;33.10;;;;;;5070178;28;20226;-63
2023/03/02 08:46:27;;;;;;;5.63;2.83;;;19.50;33.10;;;;;;5054731;28;20207;-62
2023/03/02 08:48:54;;;;;;;7.50;3.10;;;19.50;33.00;;;;;;5050995;28;20215;-64
2023/03/02 08:51:23;;;;;;;6.55;3.50;;;19.60;33.00;;;;;;5050988;28;20187;-65
2023/03/02 08:53:53;;;;;;;4.45;3.50;;;19.60;32.90;;;;;;5050845;28;20219;-64
2023/03/02 08:56:23;;;;;;;4.88;3.50;;;19.70;32.90;;;;;;5061295;28;20199;-65
2023/03/02 08:58:52;;;;;;;4.45;3.17;;;19.70;32.90;;;;;;5064119;28;20895;-62
2023/03/02 09:01:21;;;;;;;4.30;3.13;;;19.70;32.90;;;;;;5069779;28;20748;-62
2023/03/02 09:03:49;;;;;;;5.88;3.50;;;19.70;32.90;;;;;;5066552;28;20292;-56
2023/03/02 09:06:16;;;;;;;5.75;3.33;;;19.70;32.90;;;;;;5065779;28;20847;-61
2023/03/02 09:08:43;;;;;;;5.38;3.20;;;19.80;32.90;;;;;;5066143;28;20218;-64
2023/03/02 09:11:11;;;;;;;4.35;3.28;;;19.80;32.80;;;;;;5068756;28;20766;-60
2023/03/02 09:13:38;;;;;;;8.07;3.05;;;19.80;32.70;;;;;;5071379;28;20222;-63
2023/03/02 09:16:08;;;;;;;10.07;3.22;;;19.80;32.70;;;;;;5072192;28;20633;-60
2023/03/02 09:18:35;;;;;;;4.25;2.97;;;19.90;32.70;;;;;;5071604;28;20222;-64
2023/03/02 09:21:02;;;;;;;5.47;3.47;;;19.90;32.70;;;;;;5071728;28;20276;-63
2023/03/02 09:23:30;;;;;;;4.38;3.00;;;20.00;32.70;;;;;;5072589;28;20231;-61
2023/03/02 09:25:57;;;;;;;5.70;3.40;;;20.00;32.70;;;;;;5067929;28;20201;-62
2023/03/02 09:28:25;;;;;;;4.50;3.28;;;20.00;32.60;;;;;;5071648;28;20276;-64
2023/03/02 09:30:54;;;;;;;6.43;2.92;;;20.10;32.70;;;;;;5072690;28;20252;-64
2023/03/02 09:33:22;;;;;;;6.72;2.90;;;20.10;32.60;;;;;;5071996;28;20269;-64
2023/03/02 09:35:49;;;;;;;3.88;3.05;;;20.10;32.60;;;;;;5072325;28;20248;-64
2023/03/02 09:38:18;;;;;;;4.07;3.30;;;20.10;32.60;;;;;;5070648;28;20226;-64
2023/03/02 09:41:07;;;;;;;5.43;3.20;;;20.10;32.50;;;;;;5071012;28;20588;-64
2023/03/02 09:43:44;;;;;;;4.50;3.13;;;20.10;32.50;;;;;;5071406;28;20285;-65
2023/03/02 09:46:23;;;;;;;7.28;3.40;;;20.20;32.50;;;;;;5062823;28;20198;-64
2023/03/02 09:49:07;;;;;;;4.82;2.90;;;20.20;32.40;;;;;;5071960;28;20222;-61
2023/03/02 09:51:40;;;;;;;9.95;3.17;;;20.20;32.50;;;;;;5071837;28;20203;-62
2023/03/02 09:54:11;;;;;;;4.38;2.92;;;20.20;32.40;;;;;;5072902;28;20230;-63
2023/03/02 09:56:44;;;;;;;4.28;3.05;;;20.20;32.30;;;;;;5070810;28;20195;-64
2023/03/02 09:59:21;;;;;;;5.28;3.20;;;20.30;32.40;;;;;;5072412;28;20227;-63
2023/03/02 10:01:53;;;;;;;4.68;3.05;;;20.30;32.40;;;;;;5071265;28;20187;-64
2023/03/02 10:04:27;;;;;;;3.78;3.00;;;20.30;32.40;;;;;;5072422;28;20657;-65
2023/03/02 10:06:58;;;;;;;5.30;3.50;;;20.30;32.20;;;;;;5071240;28;20186;-64
2023/03/02 10:09:26;;;;;;;6.38;3.80;;;20.20;31.90;;;;;;5070465;28;20226;-65
2023/03/02 10:12:19;;;;;;;10.00;4.28;;;20.20;31.80;;;;;;5071138;28;20224;-63
2023/03/02 10:14:52;;;;;;;5.85;3.95;;;20.20;32.30;;;;;;5064029;28;20598;-64
2023/03/02 10:17:39;;;;;;;5.47;3.47;;;20.10;32.40;;;;;;5071355;28;20191;-65
2023/03/02 10:20:14;;;;;;;8.32;3.30;;;20.10;32.40;;;;;;5071650;28;20238;-64
2023/03/02 10:22:48;;;;;;;6.90;3.20;;;20.10;32.40;;;;;;5070581;28;20277;-66
2023/03/02 10:25:37;;;;;;;5.38;3.40;;;20.00;32.40;;;;;;5068071;28;20223;-64
2023/03/02 10:28:15;;;;;;;11.27;3.83;;;20.00;32.40;;;;;;5068220;28;20215;-64
2023/03/02 10:30:45;;;;;;;12.82;3.72;;;20.00;32.40;;;;;;5071716;28;20555;-69
2023/03/02 10:33:15;;;;;;;5.43;3.10;;;20.00;32.60;;;;;;5071529;28;20268;-70
2023/03/02 10:35:47;;;;;;;8.77;3.17;;;20.00;32.70;;;;;;5072964;28;20199;-69
2023/03/02 10:38:17;;;;;;;8.73;3.38;;;20.00;32.60;;;;;;5071452;28;20772;-69
2023/03/02 10:40:47;;;;;;;6.28;2.95;;;20.10;32.60;;;;;;5073414;28;20191;-67
2023/03/02 10:43:18;;;;;;;7.10;2.75;;;20.10;32.60;;;;;;5072709;28;20272;-66
2023/03/02 10:45:46;;;;;;;8.35;3.30;;;20.20;32.70;;;;;;5072581;28;20240;-66
2023/03/02 10:48:15;;;;;;;6.57;3.17;;;20.30;32.60;;;;;;5072340;28;20687;-69
2023/03/02 10:50:44;;;;;;;4.88;2.70;;;20.30;32.50;;;;;;5072949;28;20281;-69
2023/03/02 10:53:17;;;;;;;4.53;2.60;;;20.40;32.50;;;;;;5072309;28;20272;-68
2023/03/02 10:55:46;;;;;;;8.35;2.60;;;20.40;32.40;;;;;;5072733;28;20236;-69
2023/03/02 10:58:24;;;;;;;6.85;2.95;;;20.50;32.40;;;;;;5073473;28;20240;-69
2023/03/02 11:01:00;;;;;;;6.03;2.70;;;20.40;32.30;;;;;;5071511;28;20287;-68
2023/03/02 11:03:28;;;;;;;4.63;2.45;;;20.50;32.30;;;;;;5072428;28;20264;-66
2023/03/02 11:05:57;;;;;;;7.43;2.45;;;20.50;32.30;;;;;;5072450;28;20248;-69
2023/03/02 11:08:26;;;;;;;6.28;2.88;;;20.60;32.20;;;;;;5072835;28;20214;-70
2023/03/02 11:10:55;;;;;;;3.92;2.25;;;20.60;32.70;;;;;;5071737;28;20194;-69
2023/03/02 11:13:27;;;;;;;5.63;2.67;;;20.60;32.00;;;;;;5071705;28;20186;-68
2023/03/02 11:15:58;;;;;;;7.95;2.55;;;20.60;32.00;;;;;;5070538;28;20225;-67
2023/03/02 11:18:28;;;;;;;6.25;2.80;;;20.60;32.00;;;;;;5072294;28;20240;-69
2023/03/02 11:21:01;;;;;;;5.00;2.67;;;20.60;32.00;;;;;;5071513;28;20234;-69
2023/03/02 11:23:39;;;;;;;3.40;2.53;;;20.60;31.90;;;;;;5070304;28;20194;-70
2023/03/02 11:26:14;;;;;;;4.85;2.65;;;20.70;32.10;;;;;;5072113;28;20187;-66
2023/03/02 11:28:46;;;;;;;6.90;2.53;;;20.70;32.00;;;;;;5064968;28;20257;-65
2023/03/02 11:31:21;;;;;;;3.92;2.60;;;20.70;32.00;;;;;;5065583;28;20195;-67
2023/03/02 11:33:59;;;;;;;7.15;3.20;;;20.70;32.00;;;;;;5059083;28;20564;-65
2023/03/02 11:36:42;;;;;;;5.13;2.45;;;20.60;31.90;;;;;;5059044;28;20203;-67
2023/03/02 11:39:16;;;;;;;4.93;2.45;;;20.60;31.90;;;;;;5069487;28;20773;-60
2023/03/02 11:41:44;;;;;;;4.40;2.40;;;20.60;31.90;;;;;;5067049;28;20190;-60
2023/03/02 11:44:15;;;;;;;4.35;2.65;;;20.50;31.80;;;;;;5069563;28;20231;-62
2023/03/02 11:46:47;;;;;;;3.00;2.65;;;20.50;31.80;;;;;;5070945;28;20660;-64
2023/03/02 11:49:19;;;;;;;4.95;2.58;;;20.50;31.80;;;;;;5058224;28;20223;-67
2023/03/02 11:51:55;;;;;;;6.32;2.88;;;20.50;31.80;;;;;;5064194;28;20230;-62
2023/03/02 11:54:43;;;;;;;4.13;2.22;;;20.50;31.80;;;;;;5064956;28;20225;-68
2023/03/02 11:57:18;;;;;;;5.10;2.72;;;20.50;31.80;;;;;;5067666;28;20696;-66
2023/03/02 11:59:46;;;;;;;6.32;2.47;;;20.50;31.80;;;;;;5070424;28;20214;-67
2023/03/02 12:02:14;;;;;;;6.25;2.70;;;20.50;31.80;;;;;;5064594;28;20202;-65
2023/03/02 12:04:41;;;;;;;4.97;2.42;;;20.50;31.80;;;;;;5071595;28;20226;-65
2023/03/02 12:07:22;;;;;;;5.03;2.63;;;20.50;31.80;;;;;;5062452;28;20241;-63
2023/03/02 12:09:58;;;;;;;3.35;2.70;;;20.50;31.80;;;;;;5054694;28;20302;-66
2023/03/02 12:12:46;;;;;;;10.75;3.05;;;20.50;31.80;;;;;;5071427;28;20601;-66
2023/03/02 12:15:38;;;;;;;5.85;2.50;;;20.50;31.80;;;;;;5055606;28;20277;-63
2023/03/02 12:18:45;;;;;;;7.13;2.40;;;20.50;31.80;;;;;;5053254;28;20191;-64
2023/03/02 12:21:14;;;;;;;4.40;2.67;;;20.40;31.80;;;;;;5070032;28;20245;-63
2023/03/02 12:23:57;;;;;;;4.63;2.60;;;20.50;31.80;;;;;;5068436;28;20194;-62
2023/03/02 12:26:31;;;;;;;3.33;2.50;;;20.40;31.80;;;;;;5068650;28;20187;-66
2023/03/02 12:29:02;;;;;;;4.35;3.08;;;20.40;31.80;;;;;;5068085;28;20183;-68
2023/03/02 12:31:45;;;;;;;3.70;2.63;;;20.40;31.80;;;;;;5070600;28;20187;-62
2023/03/02 12:34:34;;;;;;;4.28;2.80;;;20.40;31.80;;;;;;5069759;28;20206;-65
2023/03/02 12:37:06;;;;;;;6.32;2.50;;;20.40;31.80;;;;;;5070228;28;20191;-67
2023/03/02 12:39:55;;;;;;;4.68;2.40;;;20.40;31.70;;;;;;5067952;28;20309;-66
2023/03/02 12:42:52;;;;;;;4.18;2.70;;;20.40;31.70;;;;;;5070157;28;20707;-68
2023/03/02 12:45:35;;;;;;;4.95;3.13;;;20.40;31.70;;;;;;5068591;28;20245;-65
2023/03/02 12:48:15;;;;;;;4.85;2.88;;;20.40;31.80;;;;;;5069508;28;20843;-67
2023/03/02 12:50:43;;;;;;;3.33;2.42;;;20.40;31.80;;;;;;5069121;28;20288;-69
2023/03/02 12:53:18;;;;;;;4.72;2.70;;;20.40;31.80;;;;;;5062931;28;20229;-64
2023/03/02 12:55:46;;;;;;;4.60;2.55;;;20.40;31.80;;;;;;5067648;28;20375;-69
2023/03/02 12:58:18;;;;;;;6.38;2.78;;;20.40;31.80;;;;;;5069953;28;20206;-67
2023/03/02 13:00:52;;;;;;;4.80;2.88;;;20.40;31.80;;;;;;5070675;28;20868;-64